Flight Track Log - Related Links

Times and Time Zones

All times are in EDT time to prevent confusion due to time zone crossing. See the AIP5038 flight status page for this flight to view local times or setup timezone preferences in your user account.

Time Position Orientation Groundspeed Altitude Reporting Facility
EDT Latitude Longitude Course Direction KTS MPH feet Rate Location/Type
Wed 03:26:34 AM 46.8994 -114.0769 110° East 138 159 6,700  Level Salt Lake Center
Wed 03:27:34 AM 46.8894 -114.0194 104° East 148 170 8,700 1,850 Climbing Salt Lake Center
Wed 03:28:34 AM 46.8814 -113.9519 100° East 159 183 10,400 1,750 Climbing Salt Lake Center
Wed 03:29:00 AM 46.8200 -113.5390 101° East  Level Estimated
Wed 03:29:34 AM 46.8708 -113.8878 104° East 161 185 12,200  Level Salt Lake Center
Wed 03:30:00 AM 46.8027 -113.4476 105° East  Level FlightAware Approximate
Wed 03:30:35 AM 46.8614 -113.8206 102° East 167 192 13,900  Level Salt Lake Center
Wed 03:31:00 AM 46.7863 -113.3560 108° East  Level Estimated
Wed 03:31:35 AM 46.8458 -113.7558 109° East 171 197 15,300  Level Salt Lake Center
Wed 03:32:00 AM 46.7699 -113.2643 110° East  Level Estimated
Wed 03:32:35 AM 46.8331 -113.6897 106° East 169 194 16,700  Level Salt Lake Center
Wed 03:33:35 AM 46.8167 -113.6158 108° East 190 219 17,100 198 Climbing Salt Lake Center
Wed 03:34:36 AM 46.7981 -113.5222 106° East 236 272 17,100 -99 Level Salt Lake Center
Wed 03:35:36 AM 46.7811 -113.4258 104° East 245 282 16,900 -100 Descending Salt Lake Center
Wed 03:36:36 AM 46.7594 -113.3328 109° East 244 281 16,900  Level Salt Lake Center
Wed 03:37:36 AM 46.7511 -113.2433 98° East 241 277 16,900  Level Salt Lake Center
Wed 03:38:37 AM 46.7353 -113.1483 104° East 242 278 16,900 149 Level Salt Lake Center
Wed 03:39:37 AM 46.7186 -113.0550 105° East 240 276 17,200 50 Climbing Salt Lake Center
Wed 03:40:37 AM 46.7072 -112.9597 100° East 239 275 17,000 -150 Descending Salt Lake Center
Wed 03:41:37 AM 46.6889 -112.8606 105° East 239 275 16,900 -50 Descending Salt Lake Center
Wed 03:42:38 AM 46.6672 -112.7714 109° East 234 269 16,900 99 Level Salt Lake Center
Wed 03:43:38 AM 46.6506 -112.6781 105° East 238 274 17,100 100 Climbing Salt Lake Center
Wed 03:44:38 AM 46.6333 -112.5844 105° East 240 276 17,100 -50 Level Salt Lake Center
Wed 03:45:38 AM 46.6172 -112.4878 104° East 245 282 17,000 -99 Descending Salt Lake Center
Wed 03:46:39 AM 46.6061 -112.3894 99° East 249 287 16,900 -50 Descending Salt Lake Center
Wed 03:47:39 AM 46.5819 -112.2975 111° Southeast 245 282 16,900  Level Salt Lake Center
Wed 03:48:39 AM 46.5589 -112.2083 111° Southeast 239 275 16,900  Level Salt Lake Center
Wed 03:49:39 AM 46.5392 -112.1150 107° East 241 277 16,900 150 Level Salt Lake Center
Wed 03:50:39 AM 46.5206 -112.0203 106° East 244 281 17,200 50 Climbing Salt Lake Center
Wed 03:51:39 AM 46.4992 -111.9286 109° East 241 277 17,000 -149 Descending Salt Lake Center
Wed 03:52:40 AM 46.4811 -111.8367 106° East 240 276 16,900 -50 Descending Salt Lake Center
Wed 03:53:40 AM 46.4614 -111.7411 107° East 246 283 16,900  Level Salt Lake Center
Wed 03:54:40 AM 46.4447 -111.6425 104° East 251 289 16,900 -50 Level Salt Lake Center
Wed 03:55:40 AM 46.4256 -111.5344 104° East 250 288 16,800  Descending Salt Lake Center
Wed 03:56:40 AM 46.4075 -111.4356 105° East 249 287 16,900 50 Climbing Salt Lake Center
Wed 03:57:40 AM 46.3908 -111.3453 105° East 248 285 16,900 99 Level Salt Lake Center
Wed 03:58:41 AM 46.3689 -111.2481 108° East 249 287 17,100  Climbing Salt Lake Center
Wed 03:59:41 AM 46.3508 -111.1508 105° East 248 285 16,900 -100 Descending Salt Lake Center
Wed 04:00:41 AM 46.3303 -111.0536 107° East 249 287 16,900  Level Salt Lake Center
Wed 04:01:41 AM 46.3156 -110.9703 104° East 249 287 16,900  Level Salt Lake Center
Wed 04:02:41 AM 46.2950 -110.8742 107° East 249 287 16,900 100 Level Salt Lake Center
Wed 04:03:41 AM 46.2764 -110.7772 105° East 249 287 17,100 100 Climbing Salt Lake Center
Wed 04:04:41 AM 46.2550 -110.6811 108° East 252 290 17,100 -99 Level Salt Lake Center
Wed 04:05:42 AM 46.2350 -110.5861 107° East 250 288 16,900 -99 Descending Salt Lake Center
Wed 04:06:42 AM 46.2169 -110.4878 105° East 252 290 16,900  Level Salt Lake Center
Wed 04:07:42 AM 46.1953 -110.3933 108° East 251 289 16,900  Level Salt Lake Center
Wed 04:08:42 AM 46.1739 -110.3000 108° East 247 284 16,900 100 Level Salt Lake Center
Wed 04:09:42 AM 46.1533 -110.2044 107° East 250 288 17,100 100 Climbing Salt Lake Center
Wed 04:10:42 AM 46.1350 -110.1103 106° East 247 284 17,100 -99 Level Salt Lake Center
Wed 04:11:43 AM 46.1128 -110.0156 109° East 250 288 16,900 50 Descending Salt Lake Center
Wed 04:12:43 AM 46.0917 -109.9203 108° East 250 288 17,200 150 Climbing Salt Lake Center
Wed 04:13:43 AM 46.0694 -109.8064 106° East 257 296 17,200 -50 Level Salt Lake Center
Wed 04:14:43 AM 46.0469 -109.7108 109° East 258 297 17,100 -50 Descending Salt Lake Center
Wed 04:15:43 AM 46.0278 -109.6136 106° East 256 295 17,100 -100 Level Salt Lake Center
Wed 04:16:43 AM 46.0067 -109.5172 107° East 256 295 16,900 -446 Descending Salt Lake Center
Wed 04:17:44 AM 45.9894 -109.4125 103° East 271 312 16,200 -843 Descending Salt Lake Center
Wed 04:18:44 AM 45.9656 -109.3067 108° East 279 321 15,200 -1,250 Descending Salt Lake Center
Wed 04:19:44 AM 45.9422 -109.1886 106° East 285 328 13,700 -1,650 Descending Salt Lake Center
Wed 04:20:44 AM 45.9208 -109.0892 107° East 269 310 11,900 -1,900 Descending Salt Lake Center
Wed 04:21:44 AM 45.9000 -109.0042 109° East 235 270 9,900 -1,750 Descending Salt Lake Center
Wed 04:22:44 AM 45.8803 -108.9181 108° East 230 265 8,400 -1,438 Descending Salt Lake Center
Wed 04:23:45 AM 45.8628 -108.8350 107° East 223 257 7,000 -1,041 Descending Salt Lake Center
Wed 04:24:45 AM 45.8450 -108.7594 109° East 208 239 6,300 -500 Descending Salt Lake Center
Wed 04:25:45 AM 45.8258 -108.6961 113° Southeast 180 207 6,000  Descending Salt Lake Center
Wed 04:26:45 AM 45.8017 -108.6314 118° Southeast 176 203 6,300  Climbing Salt Lake Center
Wed 04:27:45 AM 45.7733 -108.5761 126° Southeast 177 204 6,000 -450 Descending Salt Lake Center
Wed 04:28:45 AM 45.7628 -108.5175 104° East 162 186 5,400 -843 Descending Salt Lake Center
Wed 04:29:46 AM 45.7928 -108.4886 34° Northeast 142 163 4,300 -843 Descending Salt Lake Center
Wed 04:30:46 AM 45.8042 -108.5239 295° West 97 112 3,700 -600 Descending Salt Lake Center

Login

Don't have an account? Register now (free) for customized features, flight alerts, and more!